createdAt,value
2022-10-03T00:00:40.948Z,100317.05
2022-10-03T00:03:43.570Z,100306.38
2022-10-03T00:06:47.335Z,100307.81
2022-10-03T00:09:56.569Z,100297.80
2022-10-03T00:13:01.917Z,100284.28
2022-10-03T00:16:04.246Z,100275.07
2022-10-03T00:19:01.912Z,100266.88
2022-10-03T00:22:01.559Z,100257.86
2022-10-03T00:25:07.315Z,100253.16
2022-10-03T00:28:17.850Z,100249.27
2022-10-03T00:31:13.646Z,100242.11
2022-10-03T00:34:19.862Z,100240.87
2022-10-03T00:37:30.327Z,100250.67
2022-10-03T00:40:56.971Z,100247.80
2022-10-03T00:44:18.905Z,100247.98
2022-10-03T00:47:48.409Z,100262.05
2022-10-03T00:51:01.126Z,100246.72
2022-10-03T00:53:52.989Z,100248.94
2022-10-03T00:57:03.625Z,100249.34
2022-10-03T01:00:06.280Z,100231.97
2022-10-03T01:03:20.046Z,100218.22
2022-10-03T01:06:20.713Z,100238.23
2022-10-03T01:09:42.549Z,100248.45
2022-10-03T01:12:57.504Z,100241.06
2022-10-03T01:15:56.190Z,100249.42
2022-10-03T01:18:59.459Z,100259.43
2022-10-03T01:22:00.103Z,100253.09
2022-10-03T01:24:58.687Z,100253.27
2022-10-03T01:28:15.525Z,100255.52
2022-10-03T01:31:09.667Z,100266.71
2022-10-03T01:34:07.014Z,100270.15
2022-10-03T01:37:11.032Z,100269.53
2022-10-03T01:40:08.512Z,100261.77
2022-10-03T01:43:06.641Z,100267.47
2022-10-03T01:46:06.476Z,100271.14
2022-10-03T01:49:06.819Z,100277.65
2022-10-03T01:52:04.172Z,100265.78
2022-10-03T01:55:03.169Z,100271.48
2022-10-03T01:58:00.519Z,100270.05
2022-10-03T02:00:59.750Z,100265.75
2022-10-03T02:03:55.648Z,100265.13
2022-10-03T02:06:58.736Z,100274.11
2022-10-03T02:09:59.778Z,100280.43
2022-10-03T02:13:00.412Z,100281.62
2022-10-03T02:16:02.308Z,100281.62
2022-10-03T02:18:58.403Z,100282.45
2022-10-03T02:21:52.474Z,100285.50
2022-10-03T02:24:50.961Z,100279.95
2022-10-03T02:28:02.812Z,100276.67
2022-10-03T02:31:15.761Z,100265.05
2022-10-03T02:34:45.599Z,100272.80
2022-10-03T02:38:01.002Z,100277.71
2022-10-03T02:41:18.811Z,100271.39
2022-10-03T02:44:36.446Z,100274.88
2022-10-03T02:48:31.198Z,100279.56
2022-10-03T02:51:46.124Z,100276.70
2022-10-03T02:54:57.400Z,100279.17
2022-10-03T02:58:16.462Z,100282.45
2022-10-03T03:01:49.997Z,100284.91
2022-10-03T03:05:17.283Z,100273.89
2022-10-03T03:08:43.147Z,100279.66
2022-10-03T03:11:58.936Z,100288.03
2022-10-03T03:15:26.906Z,100289.28
2022-10-03T03:18:28.331Z,100288.09
2022-10-03T03:21:27.723Z,100291.16
2022-10-03T03:24:42.429Z,100287.48
2022-10-03T03:27:49.574Z,100278.51
2022-10-03T03:30:44.718Z,100261.77
2022-10-03T03:33:41.050Z,100263.41
2022-10-03T03:36:39.246Z,100253.41
2022-10-03T03:39:49.282Z,100245.68
2022-10-03T03:42:49.894Z,100234.05
2022-10-03T03:45:53.888Z,100246.92
2022-10-03T03:49:09.610Z,100262.64
2022-10-03T03:52:08.757Z,100259.81
2022-10-03T03:55:17.841Z,100247.95
2022-10-03T03:58:32.747Z,100243.27
2022-10-03T04:01:46.195Z,100240.22
2022-10-03T04:04:56.605Z,100243.31
2022-10-03T04:08:11.748Z,100246.59
2022-10-03T04:11:16.512Z,100253.33
2022-10-03T04:14:39.851Z,100251.30
2022-10-03T04:18:02.007Z,100258.45
2022-10-03T04:21:01.590Z,100260.09
2022-10-03T04:24:07.783Z,100263.56
2022-10-03T04:27:11.897Z,100261.34
2022-10-03T04:30:08.851Z,100263.78
2022-10-03T04:33:19.715Z,100257.27
2022-10-03T04:36:38.576Z,100257.92
2022-10-03T04:39:36.438Z,100259.56
2022-10-03T04:42:50.217Z,100246.89
2022-10-03T04:46:00.394Z,100245.66
2022-10-03T04:49:04.769Z,100251.41
2022-10-03T04:52:00.283Z,100245.88
2022-10-03T04:54:56.437Z,100239.15
2022-10-03T04:57:53.251Z,100241.62
2022-10-03T05:00:54.066Z,100241.22
2022-10-03T05:04:05.587Z,100232.66
2022-10-03T05:07:05.674Z,100237.35
2022-10-03T05:09:58.658Z,100230.00
2022-10-03T05:12:57.139Z,100230.42
2022-10-03T05:15:57.251Z,100242.30
2022-10-03T05:18:52.352Z,100235.55
2022-10-03T05:21:49.263Z,100233.30
2022-10-03T05:24:45.184Z,100226.55
2022-10-03T05:27:44.994Z,100230.66
2022-10-03T05:30:42.954Z,100218.59
2022-10-03T05:33:44.738Z,100222.48
2022-10-03T05:36:54.109Z,100222.08
2022-10-03T05:39:53.716Z,100229.64
2022-10-03T05:43:08.274Z,100225.74
2022-10-03T05:46:08.077Z,100230.87
2022-10-03T05:49:09.954Z,100234.34
2022-10-03T05:52:22.875Z,100234.77
2022-10-03T05:55:29.243Z,100237.20
2022-10-03T05:58:46.051Z,100244.77
2022-10-03T06:02:24.351Z,100241.09
2022-10-03T06:05:23.170Z,100246.84
2022-10-03T06:08:39.359Z,100246.42
2022-10-03T06:11:57.393Z,100246.82
2022-10-03T06:15:12.163Z,100246.22
2022-10-03T06:18:12.573Z,100247.45
2022-10-03T06:21:42.560Z,100245.78
2022-10-03T06:25:03.420Z,100242.30
2022-10-03T06:28:21.541Z,100238.81
2022-10-03T06:31:41.894Z,100243.91
2022-10-03T06:35:01.439Z,100250.88
2022-10-03T06:38:22.753Z,100263.97
2022-10-03T06:41:40.877Z,100264.77
2022-10-03T06:45:01.495Z,100263.72
2022-10-03T06:48:08.455Z,100272.34
2022-10-03T06:51:17.674Z,100269.45
2022-10-03T06:54:50.911Z,100262.25
2022-10-03T06:58:16.733Z,100267.72
2022-10-03T07:01:33.615Z,100267.66
2022-10-03T07:05:05.721Z,100266.98
2022-10-03T07:08:39.722Z,100256.05
2022-10-03T07:11:49.379Z,100263.97
2022-10-03T07:15:16.374Z,100264.08
2022-10-03T07:18:34.622Z,100266.45
2022-10-03T07:22:00.707Z,100258.57
2022-10-03T07:25:20.221Z,100263.80
2022-10-03T07:28:33.471Z,100267.41
2022-10-03T07:31:35.751Z,100259.48
2022-10-03T07:35:06.523Z,100261.22
2022-10-03T07:38:49.798Z,100257.14
2022-10-03T07:41:46.356Z,100255.73
2022-10-03T07:45:29.935Z,100251.27
2022-10-03T07:48:45.239Z,100243.23
2022-10-03T07:51:44.042Z,100244.23
2022-10-03T07:55:01.734Z,100246.29
2022-10-03T07:58:13.632Z,100232.47
2022-10-03T08:01:24.711Z,100237.98
2022-10-03T08:04:54.833Z,100232.41
2022-10-03T08:08:02.975Z,100235.45
2022-10-03T08:11:43.202Z,100237.06
2022-10-03T08:14:48.013Z,100228.20
2022-10-03T08:18:06.605Z,100229.02
2022-10-03T08:20:58.378Z,100217.71
2022-10-03T08:24:16.045Z,100225.41
2022-10-03T08:27:24.399Z,100223.77
2022-10-03T08:30:34.109Z,100208.12
2022-10-03T08:33:56.661Z,100204.26
2022-10-03T08:37:11.828Z,100205.50
2022-10-03T08:40:41.952Z,100199.76
2022-10-03T08:44:01.834Z,100196.11
2022-10-03T08:47:31.879Z,100203.42
2022-10-03T08:50:43.448Z,100194.32
2022-10-03T08:54:04.675Z,100196.30
2022-10-03T08:57:14.924Z,100194.84
2022-10-03T09:00:15.272Z,100190.80
2022-10-03T09:03:42.892Z,100186.16
2022-10-03T09:07:18.653Z,100180.80
2022-10-03T09:10:37.021Z,100177.06
2022-10-03T09:14:03.257Z,100177.84
2022-10-03T09:17:17.001Z,100170.28
2022-10-03T09:20:27.464Z,100176.98
2022-10-03T09:23:38.543Z,100163.21
2022-10-03T09:27:04.772Z,100168.05
2022-10-03T09:30:23.433Z,100162.04
2022-10-03T09:33:59.345Z,100161.14
2022-10-03T09:37:30.719Z,100151.06
2022-10-03T09:40:37.006Z,100149.83
2022-10-03T09:44:01.448Z,100157.48
2022-10-03T09:47:27.765Z,100153.55
2022-10-03T09:50:54.888Z,100147.97
2022-10-03T09:54:23.178Z,100152.66
2022-10-03T09:57:44.290Z,100149.20
2022-10-03T10:00:50.494Z,100139.00
2022-10-03T10:04:08.734Z,100139.88
2022-10-03T10:07:45.170Z,100137.75
2022-10-03T10:10:56.736Z,100135.63
2022-10-03T10:14:23.915Z,100134.55
2022-10-03T10:17:45.642Z,100134.56
2022-10-03T10:21:19.864Z,100133.74
2022-10-03T10:24:46.097Z,100125.39
2022-10-03T10:28:11.988Z,100131.32
2022-10-03T10:31:45.573Z,100123.50
2022-10-03T10:34:59.884Z,100122.70
2022-10-03T10:38:24.691Z,100124.03
2022-10-03T10:41:58.700Z,100112.42
2022-10-03T10:45:25.192Z,100108.09
2022-10-03T10:48:46.462Z,100111.03
2022-10-03T10:52:32.761Z,100107.25
2022-10-03T10:56:03.090Z,100098.59
2022-10-03T10:59:27.696Z,100113.47
2022-10-03T11:02:48.593Z,100104.83
2022-10-03T11:06:18.921Z,100099.41
2022-10-03T11:09:41.680Z,100098.31
2022-10-03T11:13:20.200Z,100093.70
2022-10-03T11:16:53.423Z,100084.28
2022-10-03T11:20:15.939Z,100090.23
2022-10-03T11:23:52.622Z,100074.81
2022-10-03T11:27:17.624Z,100083.75
2022-10-03T11:30:20.921Z,100069.93
2022-10-03T11:33:48.799Z,100081.28
2022-10-03T11:37:17.280Z,100058.82
2022-10-03T11:40:23.851Z,100066.35
2022-10-03T11:43:52.769Z,100056.87
2022-10-03T11:47:07.919Z,100052.50
2022-10-03T11:50:25.963Z,100054.88
2022-10-03T11:53:23.181Z,100038.92
2022-10-03T11:56:40.684Z,100035.62
2022-10-03T11:59:42.214Z,100033.11
2022-10-03T12:03:00.303Z,100017.10
2022-10-03T12:06:14.186Z,100061.34
2022-10-03T12:09:15.433Z,100067.99
2022-10-03T12:12:11.911Z,100085.69
2022-10-03T12:15:14.450Z,100086.23
2022-10-03T12:18:11.462Z,100094.33
2022-10-03T12:21:10.127Z,100092.14
2022-10-03T12:24:21.239Z,100086.67
2022-10-03T12:27:21.617Z,100092.55
2022-10-03T12:30:16.322Z,100088.14
2022-10-03T12:33:19.714Z,100094.80
2022-10-03T12:36:14.964Z,100099.73
2022-10-03T12:39:20.379Z,100109.61
2022-10-03T12:42:26.258Z,100108.08
2022-10-03T12:45:25.200Z,100107.58
2022-10-03T12:48:27.970Z,100114.20
2022-10-03T12:51:43.237Z,100116.02
2022-10-03T12:54:50.190Z,100106.59
2022-10-03T12:57:50.703Z,100104.70
2022-10-03T13:00:50.247Z,100103.69
2022-10-03T13:03:51.823Z,100102.38
2022-10-03T13:07:03.392Z,100085.22
2022-10-03T13:10:03.963Z,100096.54
2022-10-03T13:13:01.502Z,100085.36
2022-10-03T13:16:24.113Z,100094.06
2022-10-03T13:19:18.072Z,100083.34
2022-10-03T13:22:25.726Z,100091.17
2022-10-03T13:25:21.207Z,100084.24
2022-10-03T13:28:16.374Z,100092.94
2022-10-03T13:31:12.623Z,100093.25
2022-10-03T13:34:06.670Z,100093.83
2022-10-03T13:37:04.522Z,100092.30
2022-10-03T13:39:55.327Z,100083.20
2022-10-03T13:42:50.561Z,100094.86
2022-10-03T13:45:44.177Z,100098.15
2022-10-03T13:48:34.496Z,100096.81
2022-10-03T13:51:32.458Z,100091.99
2022-10-03T13:54:39.035Z,100091.48
2022-10-03T13:57:34.093Z,100085.86
2022-10-03T14:00:27.718Z,100090.45
2022-10-03T14:03:29.425Z,100090.21
2022-10-03T14:06:26.004Z,100078.89
2022-10-03T14:09:40.771Z,100082.95
2022-10-03T14:12:55.307Z,100091.05
2022-10-03T14:15:53.376Z,100086.16
2022-10-03T14:18:52.295Z,100085.61
2022-10-03T14:22:22.835Z,100087.52
2022-10-03T14:25:22.614Z,100084.82
2022-10-03T14:28:20.492Z,100090.47
2022-10-03T14:31:15.929Z,100087.75
2022-10-03T14:34:15.433Z,100083.16
2022-10-03T14:37:18.493Z,100090.39
2022-10-03T14:40:17.284Z,100097.41
2022-10-03T14:43:28.859Z,100093.91
2022-10-03T14:46:23.736Z,100095.78
2022-10-03T14:49:51.100Z,100090.67
2022-10-03T14:52:38.791Z,100091.45
2022-10-03T14:55:31.863Z,100085.78
2022-10-03T14:58:23.824Z,100089.26
2022-10-03T15:01:13.954Z,100090.06
2022-10-03T15:04:06.265Z,100086.52
2022-10-03T15:06:56.817Z,100089.73
2022-10-03T15:09:49.877Z,100092.16
2022-10-03T15:12:42.060Z,100096.17
2022-10-03T15:15:35.458Z,100101.54
2022-10-03T15:18:26.023Z,100106.90
2022-10-03T15:21:18.240Z,100113.88
2022-10-03T15:24:12.294Z,100126.52
2022-10-03T15:27:04.395Z,100132.66
2022-10-03T15:29:57.441Z,100126.66
2022-10-03T15:32:49.231Z,100127.97
2022-10-03T15:35:41.231Z,100127.38
2022-10-03T15:38:35.809Z,100137.00
2022-10-03T15:41:35.623Z,100131.27
2022-10-03T15:44:33.184Z,100140.05
2022-10-03T15:47:24.004Z,100145.66
2022-10-03T15:50:21.839Z,100153.63
2022-10-03T15:53:34.886Z,100155.95
2022-10-03T15:56:27.629Z,100171.19
2022-10-03T15:59:22.827Z,100170.24
2022-10-03T16:02:19.944Z,100173.61
2022-10-03T16:05:21.030Z,100174.55
2022-10-03T16:08:16.746Z,100171.98
2022-10-03T16:11:14.062Z,100175.36
2022-10-03T16:14:22.066Z,100173.59
2022-10-03T16:17:18.449Z,100173.46
2022-10-03T16:20:18.052Z,100185.12
2022-10-03T16:23:17.462Z,100181.45
2022-10-03T16:26:12.763Z,100191.23
2022-10-03T16:29:13.605Z,100183.80
2022-10-03T16:32:06.942Z,100193.31
2022-10-03T16:35:00.526Z,100199.33
2022-10-03T16:37:52.519Z,100201.02
2022-10-03T16:40:41.100Z,100216.70
2022-10-03T16:43:32.278Z,100216.52
2022-10-03T16:46:23.468Z,100222.48
2022-10-03T16:49:47.521Z,100227.44
2022-10-03T16:52:39.545Z,100224.55
2022-10-03T16:55:32.515Z,100222.25
2022-10-03T16:58:27.694Z,100231.45
2022-10-03T17:01:27.943Z,100233.67
2022-10-03T17:04:23.039Z,100237.05
2022-10-03T17:07:21.929Z,100244.39
2022-10-03T17:10:30.042Z,100248.81
2022-10-03T17:13:24.737Z,100244.06
2022-10-03T17:16:24.824Z,100252.78
2022-10-03T17:19:33.081Z,100244.88
2022-10-03T17:22:26.380Z,100239.63
2022-10-03T17:25:35.206Z,100248.59
2022-10-03T17:28:38.437Z,100246.26
2022-10-03T17:31:33.476Z,100254.17
2022-10-03T17:34:28.312Z,100258.35
2022-10-03T17:37:41.923Z,100256.39
2022-10-03T17:40:49.484Z,100253.58
2022-10-03T17:43:46.232Z,100262.08
2022-10-03T17:46:42.903Z,100262.53
2022-10-03T17:49:45.023Z,100260.53
2022-10-03T17:52:36.830Z,100267.38
2022-10-03T17:55:30.947Z,100271.56
2022-10-03T17:58:25.021Z,100275.73
2022-10-03T18:01:17.487Z,100268.41
2022-10-03T18:04:14.820Z,100264.56
2022-10-03T18:07:09.778Z,100269.78
2022-10-03T18:10:00.188Z,100271.45
2022-10-03T18:12:51.720Z,100271.56
2022-10-03T18:15:57.336Z,100279.45
2022-10-03T18:19:05.047Z,100281.98
2022-10-03T18:22:14.202Z,100291.50
2022-10-03T18:25:27.858Z,100287.84
2022-10-03T18:28:23.184Z,100300.48
2022-10-03T18:31:17.325Z,100301.37
2022-10-03T18:34:13.701Z,100302.27
2022-10-03T18:37:17.486Z,100307.70
2022-10-03T18:40:18.126Z,100303.25
2022-10-03T18:43:07.899Z,100303.54
2022-10-03T18:46:03.607Z,100309.53
2022-10-03T18:49:30.090Z,100303.44
2022-10-03T18:52:19.567Z,100304.56
2022-10-03T18:55:19.264Z,100301.94
2022-10-03T18:58:18.456Z,100302.22
2022-10-03T19:01:16.900Z,100303.09
2022-10-03T19:04:10.879Z,100301.73
2022-10-03T19:07:01.864Z,100299.94
2022-10-03T19:10:17.903Z,100313.09
2022-10-03T19:13:17.926Z,100315.66
2022-10-03T19:16:19.145Z,100310.78
2022-10-03T19:19:12.838Z,100304.87
2022-10-03T19:22:05.478Z,100314.57
2022-10-03T19:24:59.112Z,100322.83
2022-10-03T19:27:52.891Z,100329.63
2022-10-03T19:30:42.398Z,100325.14
2022-10-03T19:33:37.084Z,100334.80
2022-10-03T19:36:29.662Z,100330.54
2022-10-03T19:39:20.134Z,100329.95
2022-10-03T19:42:28.134Z,100325.08
2022-10-03T19:45:19.446Z,100338.64
2022-10-03T19:48:12.049Z,100334.95
2022-10-03T19:51:07.283Z,100335.60
2022-10-03T19:53:57.900Z,100339.91
2022-10-03T19:56:47.473Z,100349.34
2022-10-03T19:59:45.697Z,100345.87
2022-10-03T20:02:34.875Z,100349.37
2022-10-03T20:05:27.282Z,100348.38
2022-10-03T20:08:26.231Z,100343.62
2022-10-03T20:11:27.309Z,100354.08
2022-10-03T20:14:23.138Z,100359.20
2022-10-03T20:17:15.594Z,100369.47
2022-10-03T20:20:09.172Z,100367.62
2022-10-03T20:23:04.776Z,100367.61
2022-10-03T20:25:58.453Z,100364.75
2022-10-03T20:29:04.468Z,100358.41
2022-10-03T20:31:59.974Z,100360.87
2022-10-03T20:34:54.425Z,100361.27
2022-10-03T20:37:52.650Z,100370.69
2022-10-03T20:40:44.884Z,100381.73
2022-10-03T20:43:43.415Z,100377.62
2022-10-03T20:46:40.127Z,100381.53
2022-10-03T20:49:32.909Z,100387.25
2022-10-03T20:52:23.864Z,100391.95
2022-10-03T20:55:21.579Z,100391.75
2022-10-03T20:58:18.575Z,100384.16
2022-10-03T21:01:11.641Z,100378.41
2022-10-03T21:04:10.936Z,100381.69
2022-10-03T21:07:04.038Z,100380.45
2022-10-03T21:10:00.534Z,100384.53
2022-10-03T21:12:51.635Z,100386.76
2022-10-03T21:15:46.221Z,100385.73
2022-10-03T21:18:38.169Z,100382.45
2022-10-03T21:21:33.839Z,100391.84
2022-10-03T21:24:28.366Z,100393.27
2022-10-03T21:27:19.911Z,100387.11
2022-10-03T21:30:18.121Z,100397.52
2022-10-03T21:33:12.246Z,100418.95
2022-10-03T21:36:08.956Z,100404.80
2022-10-03T21:39:05.661Z,100401.26
2022-10-03T21:42:06.357Z,100409.63
2022-10-03T21:45:22.552Z,100403.89
2022-10-03T21:48:21.922Z,100399.98
2022-10-03T21:51:26.692Z,100408.14
2022-10-03T21:54:30.964Z,100399.72
2022-10-03T21:57:30.213Z,100397.63
2022-10-03T22:00:20.191Z,100390.05
2022-10-03T22:03:16.887Z,100412.53
2022-10-03T22:06:13.683Z,100404.95
2022-10-03T22:09:04.683Z,100403.70
2022-10-03T22:11:58.752Z,100412.86
2022-10-03T22:14:53.050Z,100403.46
2022-10-03T22:17:50.607Z,100405.67
2022-10-03T22:20:53.699Z,100406.05
2022-10-03T22:23:54.334Z,100396.83
2022-10-03T22:26:49.560Z,100401.72
2022-10-03T22:29:44.924Z,100402.28
2022-10-03T22:32:40.631Z,100392.05
2022-10-03T22:35:46.829Z,100388.98
2022-10-03T22:38:36.613Z,100386.50
2022-10-03T22:41:30.901Z,100384.23
2022-10-03T22:44:23.238Z,100385.45
2022-10-03T22:47:17.594Z,100384.99
2022-10-03T22:50:13.029Z,100385.38
2022-10-03T22:53:04.158Z,100387.61
2022-10-03T22:55:58.379Z,100389.81
2022-10-03T22:58:47.174Z,100398.16
2022-10-03T23:01:38.183Z,100396.72
2022-10-03T23:04:32.877Z,100390.95
2022-10-03T23:07:51.869Z,100391.71
2022-10-03T23:10:54.799Z,100385.14
2022-10-03T23:13:45.016Z,100387.16
2022-10-03T23:16:48.485Z,100390.40
2022-10-03T23:19:50.173Z,100381.18
2022-10-03T23:22:43.159Z,100386.23
2022-10-03T23:25:40.727Z,100384.76
2022-10-03T23:28:43.267Z,100385.52
2022-10-03T23:31:52.831Z,100387.53
2022-10-03T23:35:09.948Z,100388.91
2022-10-03T23:38:00.042Z,100387.64
2022-10-03T23:40:50.306Z,100392.52
2022-10-03T23:43:48.321Z,100399.00
2022-10-03T23:46:37.945Z,100404.67
2022-10-03T23:49:28.152Z,100405.89
2022-10-03T23:52:21.957Z,100402.77
2022-10-03T23:55:20.725Z,100405.63
2022-10-03T23:58:28.027Z,100412.94
